sensor_id;sensor_type;location;lat;lon;timestamp;pressure;altitude;pressure_sealevel;temperature;humidity
69593;BME280;56796;50.122;14.468;2023-06-22T00:10:41;982.13;;;20.6;99.1
69593;BME280;56796;50.122;14.468;2023-06-22T00:30:08;982.29;;;20.41;99.91
69593;BME280;56796;50.122;14.468;2023-06-22T00:49:34;982.18;;;20.34;100
69593;BME280;56796;50.122;14.468;2023-06-22T01:09:02;981.87;;;20.29;100
69593;BME280;56796;50.122;14.468;2023-06-22T01:47:53;981.76;;;20.23;100
69593;BME280;56796;50.122;14.468;2023-06-22T02:07:20;981.99;;;19.99;100
69593;BME280;56796;50.122;14.468;2023-06-22T02:26:46;982.07;;;19.75;100
69593;BME280;56796;50.122;14.468;2023-06-22T02:46:13;982.07;;;19.54;100
69593;BME280;56796;50.122;14.468;2023-06-22T03:05:39;981.97;;;19.65;100
69593;BME280;56796;50.122;14.468;2023-06-22T03:25:06;982.1;;;19.6;100
69593;BME280;56796;50.122;14.468;2023-06-22T03:44:33;982.18;;;19.58;100
69593;BME280;56796;50.122;14.468;2023-06-22T04:04:01;982.1;;;19.86;100
69593;BME280;56796;50.122;14.468;2023-06-22T04:23:28;981.86;;;20.35;100
69593;BME280;56796;50.122;14.468;2023-06-22T04:43:01;981.88;;;21.1;99.78
69593;BME280;56796;50.122;14.468;2023-06-22T05:02:22;982.15;;;21.17;98.64
69593;BME280;56796;50.122;14.468;2023-06-22T05:21:51;982.33;;;21.73;96.09
69593;BME280;56796;50.122;14.468;2023-06-22T05:41:19;982.63;;;22.45;92.61
69593;BME280;56796;50.122;14.468;2023-06-22T06:00:50;982.75;;;23.03;89.61
69593;BME280;56796;50.122;14.468;2023-06-22T06:20:20;982.76;;;24.03;85.68
69593;BME280;56796;50.122;14.468;2023-06-22T06:39:49;982.71;;;25.25;82.52
69593;BME280;56796;50.122;14.468;2023-06-22T06:59:22;982.6;;;25.88;78.2
69593;BME280;56796;50.122;14.468;2023-06-22T07:18:54;982.39;;;26.15;75.3
69593;BME280;56796;50.122;14.468;2023-06-22T07:38:26;982.24;;;27.54;72.35
69593;BME280;56796;50.122;14.468;2023-06-22T07:57:57;982.03;;;27.76;69.69
69593;BME280;56796;50.122;14.468;2023-06-22T08:17:26;981.82;;;28.75;66.05
69593;BME280;56796;50.122;14.468;2023-06-22T08:36:58;981.74;;;27.9;67.09
69593;BME280;56796;50.122;14.468;2023-06-22T08:56:18;981.72;;;29.28;62.18
69593;BME280;56796;50.122;14.468;2023-06-22T09:15:47;981.62;;;30.24;59.28
69593;BME280;56796;50.122;14.468;2023-06-22T09:35:17;981.41;;;29.93;58.25
69593;BME280;56796;50.122;14.468;2023-06-22T09:54:46;981.39;;;31.19;55.21
69593;BME280;56796;50.122;14.468;2023-06-22T10:14:19;981.15;;;31.33;54.6
69593;BME280;56796;50.122;14.468;2023-06-22T10:33:39;981.12;;;32.04;53.42
69593;BME280;56796;50.122;14.468;2023-06-22T10:53:07;981.04;;;30.9;55.73
69593;BME280;56796;50.122;14.468;2023-06-22T11:12:34;980.78;;;31.57;52.2
69593;BME280;56796;50.122;14.468;2023-06-22T11:32:02;980.57;;;32.91;50.17
69593;BME280;56796;50.122;14.468;2023-06-22T11:51:29;980.25;;;32.27;51.93
69593;BME280;56796;50.122;14.468;2023-06-22T12:10:57;980.2;;;33.07;50.87
69593;BME280;56796;50.122;14.468;2023-06-22T12:30:25;980.04;;;32.93;51.77
69593;BME280;56796;50.122;14.468;2023-06-22T12:49:50;979.68;;;31.93;52.75
69593;BME280;56796;50.122;14.468;2023-06-22T13:09:15;979.42;;;31.69;54.14
69593;BME280;56796;50.122;14.468;2023-06-22T13:28:42;979.22;;;32.61;51.61
69593;BME280;56796;50.122;14.468;2023-06-22T13:48:09;979.1;;;32.03;50.64
69593;BME280;56796;50.122;14.468;2023-06-22T14:07:41;978.92;;;32.68;48.57
69593;BME280;56796;50.122;14.468;2023-06-22T14:27:01;978.83;;;32.18;48.96
69593;BME280;56796;50.122;14.468;2023-06-22T14:46:28;978.59;;;32.4;48.22
69593;BME280;56796;50.122;14.468;2023-06-22T15:05:53;978.34;;;32.25;49.02
69593;BME280;56796;50.122;14.468;2023-06-22T15:25:20;978.25;;;31.72;51.08
69593;BME280;56796;50.122;14.468;2023-06-22T15:44:44;977.77;;;31.54;52.27
69593;BME280;56796;50.122;14.468;2023-06-22T16:04:11;977.19;;;30.95;53.24
69593;BME280;56796;50.122;14.468;2023-06-22T16:23:36;977.24;;;30.7;54.88
69593;BME280;56796;50.122;14.468;2023-06-22T16:43:04;977.16;;;30.09;56.31
69593;BME280;56796;50.122;14.468;2023-06-22T17:02:31;976.89;;;30.16;56.98
69593;BME280;56796;50.122;14.468;2023-06-22T17:21:58;976.56;;;29.84;57.22
69593;BME280;56796;50.122;14.468;2023-06-22T18:00:51;976.23;;;29.26;58.98
69593;BME280;56796;50.122;14.468;2023-06-22T18:20:18;976.29;;;29.04;59.67
69593;BME280;56796;50.122;14.468;2023-06-22T18:39:44;975.77;;;28.61;61.49
69593;BME280;56796;50.122;14.468;2023-06-22T18:59:11;976.35;;;28.12;63.72
69593;BME280;56796;50.122;14.468;2023-06-22T19:18:37;976.46;;;27.65;65.68
69593;BME280;56796;50.122;14.468;2023-06-22T19:38:03;976.85;;;27.25;67.47
69593;BME280;56796;50.122;14.468;2023-06-22T19:57:32;975.97;;;27.1;67.29
69593;BME280;56796;50.122;14.468;2023-06-22T20:16:57;975.21;;;26.75;67.65
69593;BME280;56796;50.122;14.468;2023-06-22T20:36:23;974.7;;;26.36;68.69
69593;BME280;56796;50.122;14.468;2023-06-22T20:55:49;974.12;;;26.12;69.32
69593;BME280;56796;50.122;14.468;2023-06-22T21:15:15;975.41;;;25.89;70.33
69593;BME280;56796;50.122;14.468;2023-06-22T21:34:41;975.26;;;25.76;70.66
69593;BME280;56796;50.122;14.468;2023-06-22T21:54:08;975.58;;;25.44;73.34
69593;BME280;56796;50.122;14.468;2023-06-22T22:13:34;975.37;;;25.19;75.2
69593;BME280;56796;50.122;14.468;2023-06-22T22:33:01;975.55;;;24.8;77.14
69593;BME280;56796;50.122;14.468;2023-06-22T22:52:28;975.94;;;24.73;79.59
69593;BME280;56796;50.122;14.468;2023-06-22T23:11:54;976.67;;;23.67;86.83
69593;BME280;56796;50.122;14.468;2023-06-22T23:31:20;978.41;;;23.1;89.39
69593;BME280;56796;50.122;14.468;2023-06-22T23:50:44;977.42;;;21.47;94.49
